Seden, Denmark
Current Conditions -  °F | °C
As of 1:50 PM on Friday 19 Dec 2014 (Local Time) from EKOD Reporting Station
Scattered Clouds Scattered Clouds  
Wind Chill: 39°   Ceiling: Unl
Heat Index: 46°   Visibility: 6mi
Dew Point: 43°   Wind: 22mph
Humidity: 87%   Direction: 250°WSW
Pressure: 29.47"   Gusts: NA
Location:  55.43°N, 10.44°E
Report Text: EKOD 191250Z 25019KT 9999 SCT025 08/06 Q0998
Loading
Personal Weather Stations






























Interactive Weather Map New forecast layout! Learn more

10-Day Weather Forecast

Advertisements
Track Severe Weather on mobile